Wendy C — WYB6131 — position and weather

sailwx.info

Track history (hours):
 
Tides and Currents Weather Stations Pressure Air Temp Water Temp Dewpoint Dewpoint Depression Visibility Wind Speed Wind Dir Waves Ship Positions

Wendy C

Owner: Harbor Towing & Fleeting, Inc., Metairie, LA. More information available from US FCC via Universal Licensing System and Coast Guard Vessel Documentation Center.

Last reported at 2016-Aug-04 22:10 UTC. Time now 2016-Aug-28 20:38 UTC.
Position N 29°56' W 090°00'.
Warning: this ship's position is 23 days out of date.

Length 19 m; draft 3 m.

Type: Towing. MMSI: 366160126.

Date/timePositionNaut miles runAvg speedWind from/ knotsBaromVisibWave heightAir tempDewpointWater temp
2016-Aug-04 22:10N 29°56' W 090°00'0 0.0
2016-Aug-04 21:33N 29°56' W 090°00'0 0.0
2016-Aug-04 20:33N 29°56' W 090°00'0 0.0
2016-Aug-04 19:33N 29°56' W 090°00'0 0.0
2016-Aug-04 18:33N 29°56' W 090°00'0 0.0
2016-Aug-04 17:33N 29°56' W 090°00'0 0.3
2016-Aug-04 16:33N 29°56' W 090°00'3 2.6
2016-Aug-04 15:33N 29°55' W 089°57'6 5.6
2016-Aug-04 14:33N 29°58' W 090°03'5 4.6
2016-Aug-04 13:33N 29°55' W 090°07'4 3.9
2016-Aug-04 12:33N 29°57' W 090°03'3 2.7
2016-Aug-04 11:33N 29°56' W 090°00'0 0.0
2016-Aug-04 10:33N 29°56' W 090°00'0 0.0
2016-Aug-04 09:33N 29°56' W 090°00'0 0.0
2016-Aug-04 08:33N 29°56' W 090°00'0 0.0
2016-Aug-04 07:33N 29°56' W 090°00'1 0.8
2016-Aug-04 06:33N 29°56' W 089°60'1 0.7
2016-Aug-04 04:31N 29°55' W 089°58'2 2.3
2016-Aug-04 03:33N 29°56' W 090°00'0 0.0
2016-Aug-04 02:33N 29°56' W 090°00'0 0.0
2016-Aug-04 01:33N 29°56' W 090°00'0 0.0
2016-Aug-04 00:33N 29°56' W 090°00'0 0.0
2016-Aug-03 23:33N 29°56' W 090°00'0 0.0
2016-Aug-03 22:33N 29°56' W 090°00'0 0.0
2016-Aug-03 21:33N 29°56' W 090°00'0 0.0
2016-Aug-03 20:33N 29°56' W 090°00'0 0.0
2016-Aug-03 19:33N 29°56' W 090°00'0 0.0
2016-Aug-03 18:33N 29°56' W 090°00'0 0.0
2016-Aug-03 17:33N 29°56' W 090°00'0 0.0
2016-Aug-03 16:33N 29°56' W 090°00'0 0.0
2016-Aug-03 15:33N 29°56' W 090°00'0 0.0
2016-Aug-03 14:33N 29°56' W 090°00'0 0.0
2016-Aug-03 13:33N 29°56' W 090°00'0 0.0
2016-Aug-03 12:33N 29°56' W 090°00'0 0.0
2016-Aug-03 11:33N 29°56' W 090°00'0 0.0
2016-Aug-03 10:33N 29°56' W 090°00'0 0.0
2016-Aug-03 09:33N 29°56' W 090°00'0 0.0
2016-Aug-03 08:33N 29°56' W 090°00'0 0.0
2016-Aug-03 07:33N 29°56' W 090°00'0 0.0
2016-Aug-03 06:33N 29°56' W 090°00'0 0.0
2016-Aug-03 04:33N 29°56' W 090°00'0 0.0
2016-Aug-03 03:33N 29°56' W 090°00'0 0.0
2016-Aug-03 02:33N 29°56' W 090°00'0 0.0
2016-Aug-03 01:33N 29°56' W 090°00'0 0.0
2016-Aug-03 00:33N 29°56' W 090°00'0 0.0
2016-Aug-02 23:33N 29°56' W 090°00'0 0.0
2016-Aug-02 22:33N 29°56' W 090°00'0 0.0
2016-Aug-02 21:33N 29°56' W 090°00'0 0.0
2016-Aug-02 20:33N 29°56' W 090°00'0 0.0
2016-Aug-02 19:33N 29°56' W 090°00'0 0.0
2016-Aug-02 18:33N 29°56' W 090°00'0 0.0
2016-Aug-02 17:33N 29°56' W 090°00'0 0.0
2016-Aug-02 16:33N 29°56' W 090°00'0 0.0
2016-Aug-02 15:33N 29°56' W 090°00'0 0.0
2016-Aug-02 14:33N 29°56' W 090°00'0 0.0
2016-Aug-02 13:33N 29°56' W 090°00'0 0.0
2016-Aug-02 12:33N 29°56' W 090°00'0 0.0
2016-Aug-02 11:33N 29°56' W 090°00'0 0.0
2016-Aug-02 10:33N 29°56' W 090°00'0 0.0
2016-Aug-02 09:33N 29°56' W 090°00'0 0.0
2016-Aug-02 08:33N 29°56' W 090°00'2 2.2
2016-Aug-02 07:33N 29°55' W 089°58'1 1.2
2016-Aug-02 06:34N 29°54' W 089°59'2 1.1
2016-Aug-02 04:33N 29°56' W 089°60'0 0.4
2016-Aug-02 03:33N 29°56' W 090°00'0 0.0
2016-Aug-02 02:33N 29°56' W 090°00'0 0.0
2016-Aug-02 01:33N 29°56' W 090°00'0 0.0
2016-Aug-02 00:33N 29°56' W 090°00'0 0.0
2016-Aug-01 23:33N 29°56' W 090°00'0 0.0
2016-Aug-01 22:33N 29°56' W 090°00'0 0.0
2016-Aug-01 21:33N 29°56' W 090°00'0 0.0
2016-Aug-01 20:33N 29°56' W 090°00'0 0.0
2016-Aug-01 19:34N 29°56' W 090°00'0 0.0
2016-Aug-01 18:33N 29°56' W 090°00'0 0.0
2016-Aug-01 17:33N 29°56' W 090°00'0 0.0
2016-Aug-01 16:33N 29°56' W 090°00'0 0.1
2016-Aug-01 15:33N 29°56' W 090°00'0 0.1
2016-Aug-01 14:33N 29°56' W 090°00'0 0.0
2016-Aug-01 13:33N 29°56' W 090°00'0 0.0
2016-Aug-01 12:33N 29°56' W 090°00'0 0.0
2016-Aug-01 11:33N 29°56' W 090°00'0 0.0
2016-Aug-01 10:33N 29°56' W 090°00'0 0.0
2016-Aug-01 09:33N 29°56' W 090°00'0 0.0
2016-Aug-01 08:33N 29°56' W 090°00'0 0.0
2016-Aug-01 07:33N 29°56' W 090°00'0 0.0
2016-Aug-01 05:33N 29°56' W 090°00'0 0.0
2016-Aug-01 04:33N 29°56' W 090°00'0 0.0
2016-Aug-01 03:33N 29°56' W 090°00'0 0.0
2016-Aug-01 02:33N 29°56' W 090°00'0 0.0
2016-Aug-01 01:33N 29°56' W 090°00'0 0.0
2016-Aug-01 00:33N 29°56' W 090°00'0 0.0
2016-Jul-31 23:33N 29°56' W 090°00'0 0.0
2016-Jul-31 22:33N 29°56' W 090°00'0 0.0
2016-Jul-31 21:33N 29°56' W 090°00'0 0.0
2016-Jul-31 20:33N 29°56' W 090°00'0 0.0
2016-Jul-31 19:33N 29°56' W 090°00'0 0.0
2016-Jul-31 18:34N 29°56' W 090°00'0 0.0
2016-Jul-31 17:33N 29°56' W 090°00'0 0.0
2016-Jul-31 16:33N 29°56' W 090°00'0 0.0
2016-Jul-31 15:33N 29°56' W 090°00'0 0.0
2016-Jul-31 14:33N 29°56' W 090°00'0 0.0
2016-Jul-31 13:33N 29°56' W 090°00'0 0.0
2016-Jul-31 12:33N 29°56' W 090°00'0 0.0
2016-Jul-31 11:33N 29°56' W 090°00'0 0.0
2016-Jul-31 10:33N 29°56' W 090°00'0 0.0
2016-Jul-31 09:33N 29°56' W 090°00'0 0.0
2016-Jul-31 08:33N 29°56' W 090°00'2 1.5
2016-Jul-31 07:33N 29°56' W 089°59'1 1.0
2016-Jul-31 06:33N 29°55' W 089°59'0 0.1
2016-Jul-31 05:33N 29°55' W 089°59'2 2.2
2016-Jul-31 04:33N 29°56' W 090°00'0 0.0
2016-Jul-31 03:33N 29°56' W 090°00'0 0.0
2016-Jul-31 02:33N 29°56' W 090°00'0 0.0
2016-Jul-31 01:33N 29°56' W 090°00'0 0.0
2016-Jul-31 00:33N 29°56' W 090°00'0 0.0
2016-Jul-30 22:33N 29°56' W 090°00'0 0.0
2016-Jul-30 21:33N 29°56' W 090°00'0 0.0
2016-Jul-30 20:33N 29°56' W 090°00'0 0.0
2016-Jul-30 19:33N 29°56' W 090°00'0 0.5
2016-Jul-30 18:33N 29°56' W 089°60'2 1.5
2016-Jul-30 17:30N 29°55' W 089°58'3 3.6
2016-Jul-30 16:33N 29°57' W 090°01'1 0.9
2016-Jul-30 15:33N 29°58' W 090°02'1 1.0
2016-Jul-30 14:33N 29°59' W 090°01'1 1.2
2016-Jul-30 13:33N 29°58' W 090°02'0 0.2
2016-Jul-30 12:33N 29°58' W 090°02'2 1.9
2016-Jul-30 11:33N 29°56' W 090°00'0 0.0
2016-Jul-30 10:33N 29°56' W 090°00'0 0.0
2016-Jul-30 09:33N 29°56' W 090°00'0 0.0
2016-Jul-30 08:33N 29°56' W 090°00'0 0.0
2016-Jul-30 07:33N 29°56' W 090°00'0 0.0
2016-Jul-30 06:33N 29°56' W 090°00'0 0.0
2016-Jul-30 05:33N 29°56' W 090°00'0 0.0
2016-Jul-30 04:33N 29°56' W 090°00'3 2.7
2016-Jul-30 03:33N 29°59' W 090°01'1 1.4
2016-Jul-30 02:33N 29°60' W 090°00'2 2.2
2016-Jul-30 01:33N 29°58' W 090°02'0 0.5
2016-Jul-30 00:33N 29°58' W 090°02'2 1.7
2016-Jul-29 23:33N 29°56' W 090°00'0 0.0
2016-Jul-29 22:33N 29°56' W 090°00'0 0.0
2016-Jul-29 21:33N 29°56' W 090°00'0 0.0
2016-Jul-29 20:34N 29°56' W 090°00'0 0.0
2016-Jul-29 19:33N 29°56' W 090°00'0 0.0
2016-Jul-29 18:33N 29°56' W 090°00'0 0.0
2016-Jul-29 17:33N 29°56' W 090°00'0 0.0
2016-Jul-29 16:33N 29°56' W 090°00'0 0.0
2016-Jul-29 15:33N 29°56' W 090°00'0 0.0
2016-Jul-29 14:33N 29°56' W 090°00'0 0.0
2016-Jul-29 13:34N 29°56' W 090°00'0 0.0
2016-Jul-29 12:33N 29°56' W 090°00'0 0.0
2016-Jul-29 11:33N 29°56' W 090°00'0 0.0
2016-Jul-29 10:33N 29°56' W 090°00'0 0.0
2016-Jul-29 09:33N 29°56' W 090°00'0 0.0
2016-Jul-29 08:33N 29°56' W 090°00'0 0.0
2016-Jul-29 07:33N 29°56' W 090°00'3 2.5
2016-Jul-29 06:33N 29°55' W 089°58'1 1.4
2016-Jul-29 05:33N 29°56' W 089°59'3 3.1
2016-Jul-29 04:33N 29°58' W 090°02'1 1.2
2016-Jul-29 03:33N 29°59' W 090°01'1 1.5
2016-Jul-29 02:33N 29°58' W 090°02'2 1.9
2016-Jul-29 01:33N 29°56' W 090°00'0 0.0
2016-Jul-29 00:33N 29°56' W 090°00'0 0.0
2016-Jul-28 23:33N 29°56' W 090°00'0 0.0
2016-Jul-28 22:33N 29°56' W 090°00'0 0.1
2016-Jul-28 21:33N 29°56' W 090°00'0 0.1
2016-Jul-28 20:33N 29°56' W 090°00'0 0.0
2016-Jul-28 19:33N 29°56' W 090°00'0 0.0
2016-Jul-28 18:33N 29°56' W 090°00'0 0.0
2016-Jul-28 17:33N 29°56' W 090°00'0 0.0
2016-Jul-28 16:33N 29°56' W 090°00'0 0.0
2016-Jul-28 15:33N 29°56' W 090°00'0 0.0
2016-Jul-28 14:33N 29°56' W 090°00'0 0.0
2016-Jul-28 13:33N 29°56' W 090°00'0 0.0
2016-Jul-28 12:33N 29°56' W 090°00'0 0.0
2016-Jul-28 11:33N 29°56' W 090°00'2 1.9
2016-Jul-28 10:33N 29°58' W 090°02'2 2.0
2016-Jul-28 09:33N 29°60' W 090°01'6 4.8
2016-Jul-28 08:14N 30°01' W 089°54'5 6.8
2016-Jul-28 07:33N 29°60' W 089°59'3 3.4
2016-Jul-28 06:33N 29°58' W 090°02'1 0.5
2016-Jul-28 05:33N 29°57' W 090°01'1 0.8
2016-Jul-28 04:33N 29°58' W 090°02'5 5.2
2016-Jul-28 03:33N 30°00' W 089°56'1 0.3
2016-Jul-28 01:33N 30°00' W 089°57'5 4.8
2016-Jul-28 00:33N 29°58' W 090°02'0 0.3
2016-Jul-27 23:33N 29°58' W 090°02'3 2.6
2016-Jul-27 22:33N 29°56' W 089°60'1 0.8
2016-Jul-27 21:33N 29°56' W 090°00'0 0.0
2016-Jul-27 20:33N 29°56' W 090°00'0 0.0
2016-Jul-27 18:26N 29°56' W 090°00'0 0.0
2016-Jul-27 17:33N 29°56' W 090°00'0 0.0
2016-Jul-27 16:34N 29°56' W 090°00'0 0.0
2016-Jul-27 15:33N 29°56' W 090°00'0 0.0
2016-Jul-27 14:33N 29°56' W 090°00'0 0.0
2016-Jul-27 13:33N 29°56' W 090°00'0 0.0
2016-Jul-27 12:33N 29°56' W 090°00'0 0.0
2016-Jul-27 11:33N 29°56' W 090°00'0 0.0
2016-Jul-27 10:33N 29°56' W 090°00'0 0.0
2016-Jul-27 09:33N 29°56' W 090°00'0 0.0
2016-Jul-27 08:33N 29°56' W 090°00'0 0.0
2016-Jul-27 07:33N 29°56' W 090°00'0 0.0
2016-Jul-27 06:33N 29°56' W 090°00'2 1.9
2016-Jul-27 05:33N 29°58' W 090°02'2 2.2
2016-Jul-27 04:33N 29°60' W 090°00'0 0.0
2016-Jul-27 03:33N 29°60' W 090°00'2 2.3
2016-Jul-27 02:33N 29°58' W 090°02'2 1.9
2016-Jul-27 01:33N 29°56' W 090°00'0 0.0
2016-Jul-27 00:33N 29°56' W 090°00'0 0.0
2016-Jul-26 23:33N 29°56' W 090°00'0 0.0
2016-Jul-26 22:33N 29°56' W 090°00'0 0.0
2016-Jul-26 21:33N 29°56' W 090°00'0 0.0
2016-Jul-26 20:33N 29°56' W 090°00'0 0.0
2016-Jul-26 19:33N 29°56' W 090°00'0 0.0
2016-Jul-26 18:33N 29°56' W 090°00'0 0.0
2016-Jul-26 17:33N 29°56' W 090°00'0 0.0
2016-Jul-26 16:33N 29°56' W 090°00'0 0.0
2016-Jul-26 15:33N 29°56' W 090°00'0 0.0
2016-Jul-26 14:33N 29°56' W 090°00'0 0.0
2016-Jul-26 13:33N 29°56' W 090°00'0 0.0
2016-Jul-26 12:33N 29°56' W 090°00'0 0.0
2016-Jul-26 11:33N 29°56' W 090°00'0 0.0
2016-Jul-26 10:33N 29°56' W 090°00'3 3.0
2016-Jul-26 09:33N 29°59' W 090°01'1 0.9
2016-Jul-26 08:33N 29°60' W 090°00'2 2.5
2016-Jul-26 07:33N 29°58' W 090°02'0 0.3
2016-Jul-26 06:33N 29°57' W 090°01'2 2.3
2016-Jul-26 05:33N 29°56' W 089°59'1 0.9
2016-Jul-26 04:33N 29°56' W 090°00'0 0.0
2016-Jul-26 03:33N 29°56' W 090°00'0 0.0
2016-Jul-26 02:33N 29°56' W 090°00'0 0.0
2016-Jul-26 01:33N 29°56' W 090°00'0 0.0
2016-Jul-26 00:33N 29°56' W 090°00'0 0.0
2016-Jul-25 23:33N 29°56' W 090°00'0 0.0
2016-Jul-25 22:34N 29°56' W 090°00'  
Track history (hours):
 
Tides and Currents Weather Stations Pressure Air Temp Water Temp Dewpoint Dewpoint Depression Visibility Wind Speed Wind Dir Waves Ship Positions

Wendy C

Owner: Harbor Towing & Fleeting, Inc., Metairie, LA. More information available from US FCC via Universal Licensing System and Coast Guard Vessel Documentation Center.

Last reported at 2016-Aug-04 22:10 UTC. Time now 2016-Aug-28 20:38 UTC.
Position N 29°56' W 090°00'.
Warning: this ship's position is 23 days out of date.

Length 19 m; draft 3 m.

Type: Towing. MMSI: 366160126.

Date/timePositionNaut miles runAvg speedWind from/ knotsBaromVisibWave heightAir tempDewpointWater temp
2016-Aug-04 22:10N 29°56' W 090°00'0 0.0
2016-Aug-04 21:33N 29°56' W 090°00'0 0.0
2016-Aug-04 20:33N 29°56' W 090°00'0 0.0
2016-Aug-04 19:33N 29°56' W 090°00'0 0.0
2016-Aug-04 18:33N 29°56' W 090°00'0 0.0
2016-Aug-04 17:33N 29°56' W 090°00'0 0.3
2016-Aug-04 16:33N 29°56' W 090°00'3 2.6
2016-Aug-04 15:33N 29°55' W 089°57'6 5.6
2016-Aug-04 14:33N 29°58' W 090°03'5 4.6
2016-Aug-04 13:33N 29°55' W 090°07'4 3.9
2016-Aug-04 12:33N 29°57' W 090°03'3 2.7
2016-Aug-04 11:33N 29°56' W 090°00'0 0.0
2016-Aug-04 10:33N 29°56' W 090°00'0 0.0
2016-Aug-04 09:33N 29°56' W 090°00'0 0.0
2016-Aug-04 08:33N 29°56' W 090°00'0 0.0
2016-Aug-04 07:33N 29°56' W 090°00'1 0.8
2016-Aug-04 06:33N 29°56' W 089°60'1 0.7
2016-Aug-04 04:31N 29°55' W 089°58'2 2.3
2016-Aug-04 03:33N 29°56' W 090°00'0 0.0
2016-Aug-04 02:33N 29°56' W 090°00'0 0.0
2016-Aug-04 01:33N 29°56' W 090°00'0 0.0
2016-Aug-04 00:33N 29°56' W 090°00'0 0.0
2016-Aug-03 23:33N 29°56' W 090°00'0 0.0
2016-Aug-03 22:33N 29°56' W 090°00'0 0.0
2016-Aug-03 21:33N 29°56' W 090°00'0 0.0
2016-Aug-03 20:33N 29°56' W 090°00'0 0.0
2016-Aug-03 19:33N 29°56' W 090°00'0 0.0
2016-Aug-03 18:33N 29°56' W 090°00'0 0.0
2016-Aug-03 17:33N 29°56' W 090°00'0 0.0
2016-Aug-03 16:33N 29°56' W 090°00'0 0.0
2016-Aug-03 15:33N 29°56' W 090°00'0 0.0
2016-Aug-03 14:33N 29°56' W 090°00'0 0.0
2016-Aug-03 13:33N 29°56' W 090°00'0 0.0
2016-Aug-03 12:33N 29°56' W 090°00'0 0.0
2016-Aug-03 11:33N 29°56' W 090°00'0 0.0
2016-Aug-03 10:33N 29°56' W 090°00'0 0.0
2016-Aug-03 09:33N 29°56' W 090°00'0 0.0
2016-Aug-03 08:33N 29°56' W 090°00'0 0.0
2016-Aug-03 07:33N 29°56' W 090°00'0 0.0
2016-Aug-03 06:33N 29°56' W 090°00'0 0.0
2016-Aug-03 04:33N 29°56' W 090°00'0 0.0
2016-Aug-03 03:33N 29°56' W 090°00'0 0.0
2016-Aug-03 02:33N 29°56' W 090°00'0 0.0
2016-Aug-03 01:33N 29°56' W 090°00'0 0.0
2016-Aug-03 00:33N 29°56' W 090°00'0 0.0
2016-Aug-02 23:33N 29°56' W 090°00'0 0.0
2016-Aug-02 22:33N 29°56' W 090°00'0 0.0
2016-Aug-02 21:33N 29°56' W 090°00'0 0.0
2016-Aug-02 20:33N 29°56' W 090°00'0 0.0
2016-Aug-02 19:33N 29°56' W 090°00'0 0.0
2016-Aug-02 18:33N 29°56' W 090°00'0 0.0
2016-Aug-02 17:33N 29°56' W 090°00'0 0.0
2016-Aug-02 16:33N 29°56' W 090°00'0 0.0
2016-Aug-02 15:33N 29°56' W 090°00'0 0.0
2016-Aug-02 14:33N 29°56' W 090°00'0 0.0
2016-Aug-02 13:33N 29°56' W 090°00'0 0.0
2016-Aug-02 12:33N 29°56' W 090°00'0 0.0
2016-Aug-02 11:33N 29°56' W 090°00'0 0.0
2016-Aug-02 10:33N 29°56' W 090°00'0 0.0
2016-Aug-02 09:33N 29°56' W 090°00'0 0.0
2016-Aug-02 08:33N 29°56' W 090°00'2 2.2
2016-Aug-02 07:33N 29°55' W 089°58'1 1.2
2016-Aug-02 06:34N 29°54' W 089°59'2 1.1
2016-Aug-02 04:33N 29°56' W 089°60'0 0.4
2016-Aug-02 03:33N 29°56' W 090°00'0 0.0
2016-Aug-02 02:33N 29°56' W 090°00'0 0.0
2016-Aug-02 01:33N 29°56' W 090°00'0 0.0
2016-Aug-02 00:33N 29°56' W 090°00'0 0.0
2016-Aug-01 23:33N 29°56' W 090°00'0 0.0
2016-Aug-01 22:33N 29°56' W 090°00'0 0.0
2016-Aug-01 21:33N 29°56' W 090°00'0 0.0
2016-Aug-01 20:33N 29°56' W 090°00'0 0.0
2016-Aug-01 19:34N 29°56' W 090°00'0 0.0
2016-Aug-01 18:33N 29°56' W 090°00'0 0.0
2016-Aug-01 17:33N 29°56' W 090°00'0 0.0
2016-Aug-01 16:33N 29°56' W 090°00'0 0.1
2016-Aug-01 15:33N 29°56' W 090°00'0 0.1
2016-Aug-01 14:33N 29°56' W 090°00'0 0.0
2016-Aug-01 13:33N 29°56' W 090°00'0 0.0
2016-Aug-01 12:33N 29°56' W 090°00'0 0.0
2016-Aug-01 11:33N 29°56' W 090°00'0 0.0
2016-Aug-01 10:33N 29°56' W 090°00'0 0.0
2016-Aug-01 09:33N 29°56' W 090°00'0 0.0
2016-Aug-01 08:33N 29°56' W 090°00'0 0.0
2016-Aug-01 07:33N 29°56' W 090°00'0 0.0
2016-Aug-01 05:33N 29°56' W 090°00'0 0.0
2016-Aug-01 04:33N 29°56' W 090°00'0 0.0
2016-Aug-01 03:33N 29°56' W 090°00'0 0.0
2016-Aug-01 02:33N 29°56' W 090°00'0 0.0
2016-Aug-01 01:33N 29°56' W 090°00'0 0.0
2016-Aug-01 00:33N 29°56' W 090°00'0 0.0
2016-Jul-31 23:33N 29°56' W 090°00'0 0.0
2016-Jul-31 22:33N 29°56' W 090°00'0 0.0
2016-Jul-31 21:33N 29°56' W 090°00'0 0.0
2016-Jul-31 20:33N 29°56' W 090°00'0 0.0
2016-Jul-31 19:33N 29°56' W 090°00'0 0.0
2016-Jul-31 18:34N 29°56' W 090°00'0 0.0
2016-Jul-31 17:33N 29°56' W 090°00'0 0.0
2016-Jul-31 16:33N 29°56' W 090°00'0 0.0
2016-Jul-31 15:33N 29°56' W 090°00'0 0.0
2016-Jul-31 14:33N 29°56' W 090°00'0 0.0
2016-Jul-31 13:33N 29°56' W 090°00'0 0.0
2016-Jul-31 12:33N 29°56' W 090°00'0 0.0
2016-Jul-31 11:33N 29°56' W 090°00'0 0.0
2016-Jul-31 10:33N 29°56' W 090°00'0 0.0
2016-Jul-31 09:33N 29°56' W 090°00'0 0.0
2016-Jul-31 08:33N 29°56' W 090°00'2 1.5
2016-Jul-31 07:33N 29°56' W 089°59'1 1.0
2016-Jul-31 06:33N 29°55' W 089°59'0 0.1
2016-Jul-31 05:33N 29°55' W 089°59'2 2.2
2016-Jul-31 04:33N 29°56' W 090°00'0 0.0
2016-Jul-31 03:33N 29°56' W 090°00'0 0.0
2016-Jul-31 02:33N 29°56' W 090°00'0 0.0
2016-Jul-31 01:33N 29°56' W 090°00'0 0.0
2016-Jul-31 00:33N 29°56' W 090°00'0 0.0
2016-Jul-30 22:33N 29°56' W 090°00'0 0.0
2016-Jul-30 21:33N 29°56' W 090°00'0 0.0
2016-Jul-30 20:33N 29°56' W 090°00'0 0.0
2016-Jul-30 19:33N 29°56' W 090°00'0 0.5
2016-Jul-30 18:33N 29°56' W 089°60'2 1.5
2016-Jul-30 17:30N 29°55' W 089°58'3 3.6
2016-Jul-30 16:33N 29°57' W 090°01'1 0.9
2016-Jul-30 15:33N 29°58' W 090°02'1 1.0
2016-Jul-30 14:33N 29°59' W 090°01'1 1.2
2016-Jul-30 13:33N 29°58' W 090°02'0 0.2
2016-Jul-30 12:33N 29°58' W 090°02'2 1.9
2016-Jul-30 11:33N 29°56' W 090°00'0 0.0
2016-Jul-30 10:33N 29°56' W 090°00'0 0.0
2016-Jul-30 09:33N 29°56' W 090°00'0 0.0
2016-Jul-30 08:33N 29°56' W 090°00'0 0.0
2016-Jul-30 07:33N 29°56' W 090°00'0 0.0
2016-Jul-30 06:33N 29°56' W 090°00'0 0.0
2016-Jul-30 05:33N 29°56' W 090°00'0 0.0
2016-Jul-30 04:33N 29°56' W 090°00'3 2.7
2016-Jul-30 03:33N 29°59' W 090°01'1 1.4
2016-Jul-30 02:33N 29°60' W 090°00'2 2.2
2016-Jul-30 01:33N 29°58' W 090°02'0 0.5
2016-Jul-30 00:33N 29°58' W 090°02'2 1.7
2016-Jul-29 23:33N 29°56' W 090°00'0 0.0
2016-Jul-29 22:33N 29°56' W 090°00'0 0.0
2016-Jul-29 21:33N 29°56' W 090°00'0 0.0
2016-Jul-29 20:34N 29°56' W 090°00'0 0.0
2016-Jul-29 19:33N 29°56' W 090°00'0 0.0
2016-Jul-29 18:33N 29°56' W 090°00'0 0.0
2016-Jul-29 17:33N 29°56' W 090°00'0 0.0
2016-Jul-29 16:33N 29°56' W 090°00'0 0.0
2016-Jul-29 15:33N 29°56' W 090°00'0 0.0
2016-Jul-29 14:33N 29°56' W 090°00'0 0.0
2016-Jul-29 13:34N 29°56' W 090°00'0 0.0
2016-Jul-29 12:33N 29°56' W 090°00'0 0.0
2016-Jul-29 11:33N 29°56' W 090°00'0 0.0
2016-Jul-29 10:33N 29°56' W 090°00'0 0.0
2016-Jul-29 09:33N 29°56' W 090°00'0 0.0
2016-Jul-29 08:33N 29°56' W 090°00'0 0.0
2016-Jul-29 07:33N 29°56' W 090°00'3 2.5
2016-Jul-29 06:33N 29°55' W 089°58'1 1.4
2016-Jul-29 05:33N 29°56' W 089°59'3 3.1
2016-Jul-29 04:33N 29°58' W 090°02'1 1.2
2016-Jul-29 03:33N 29°59' W 090°01'1 1.5
2016-Jul-29 02:33N 29°58' W 090°02'2 1.9
2016-Jul-29 01:33N 29°56' W 090°00'0 0.0
2016-Jul-29 00:33N 29°56' W 090°00'0 0.0
2016-Jul-28 23:33N 29°56' W 090°00'0 0.0
2016-Jul-28 22:33N 29°56' W 090°00'0 0.1
2016-Jul-28 21:33N 29°56' W 090°00'0 0.1
2016-Jul-28 20:33N 29°56' W 090°00'0 0.0
2016-Jul-28 19:33N 29°56' W 090°00'0 0.0
2016-Jul-28 18:33N 29°56' W 090°00'0 0.0
2016-Jul-28 17:33N 29°56' W 090°00'0 0.0
2016-Jul-28 16:33N 29°56' W 090°00'0 0.0
2016-Jul-28 15:33N 29°56' W 090°00'0 0.0
2016-Jul-28 14:33N 29°56' W 090°00'0 0.0
2016-Jul-28 13:33N 29°56' W 090°00'0 0.0
2016-Jul-28 12:33N 29°56' W 090°00'0 0.0
2016-Jul-28 11:33N 29°56' W 090°00'2 1.9
2016-Jul-28 10:33N 29°58' W 090°02'2 2.0
2016-Jul-28 09:33N 29°60' W 090°01'6 4.8
2016-Jul-28 08:14N 30°01' W 089°54'5 6.8
2016-Jul-28 07:33N 29°60' W 089°59'3 3.4
2016-Jul-28 06:33N 29°58' W 090°02'1 0.5
2016-Jul-28 05:33N 29°57' W 090°01'1 0.8
2016-Jul-28 04:33N 29°58' W 090°02'5 5.2
2016-Jul-28 03:33N 30°00' W 089°56'1 0.3
2016-Jul-28 01:33N 30°00' W 089°57'5 4.8
2016-Jul-28 00:33N 29°58' W 090°02'0 0.3
2016-Jul-27 23:33N 29°58' W 090°02'3 2.6
2016-Jul-27 22:33N 29°56' W 089°60'1 0.8
2016-Jul-27 21:33N 29°56' W 090°00'0 0.0
2016-Jul-27 20:33N 29°56' W 090°00'0 0.0
2016-Jul-27 18:26N 29°56' W 090°00'0 0.0
2016-Jul-27 17:33N 29°56' W 090°00'0 0.0
2016-Jul-27 16:34N 29°56' W 090°00'0 0.0
2016-Jul-27 15:33N 29°56' W 090°00'0 0.0
2016-Jul-27 14:33N 29°56' W 090°00'0 0.0
2016-Jul-27 13:33N 29°56' W 090°00'0 0.0
2016-Jul-27 12:33N 29°56' W 090°00'0 0.0
2016-Jul-27 11:33N 29°56' W 090°00'0 0.0
2016-Jul-27 10:33N 29°56' W 090°00'0 0.0
2016-Jul-27 09:33N 29°56' W 090°00'0 0.0
2016-Jul-27 08:33N 29°56' W 090°00'0 0.0
2016-Jul-27 07:33N 29°56' W 090°00'0 0.0
2016-Jul-27 06:33N 29°56' W 090°00'2 1.9
2016-Jul-27 05:33N 29°58' W 090°02'2 2.2
2016-Jul-27 04:33N 29°60' W 090°00'0 0.0
2016-Jul-27 03:33N 29°60' W 090°00'2 2.3
2016-Jul-27 02:33N 29°58' W 090°02'2 1.9
2016-Jul-27 01:33N 29°56' W 090°00'0 0.0
2016-Jul-27 00:33N 29°56' W 090°00'0 0.0
2016-Jul-26 23:33N 29°56' W 090°00'0 0.0
2016-Jul-26 22:33N 29°56' W 090°00'0 0.0
2016-Jul-26 21:33N 29°56' W 090°00'0 0.0
2016-Jul-26 20:33N 29°56' W 090°00'0 0.0
2016-Jul-26 19:33N 29°56' W 090°00'0 0.0
2016-Jul-26 18:33N 29°56' W 090°00'0 0.0
2016-Jul-26 17:33N 29°56' W 090°00'0 0.0
2016-Jul-26 16:33N 29°56' W 090°00'0 0.0
2016-Jul-26 15:33N 29°56' W 090°00'0 0.0
2016-Jul-26 14:33N 29°56' W 090°00'0 0.0
2016-Jul-26 13:33N 29°56' W 090°00'0 0.0
2016-Jul-26 12:33N 29°56' W 090°00'0 0.0
2016-Jul-26 11:33N 29°56' W 090°00'0 0.0
2016-Jul-26 10:33N 29°56' W 090°00'3 3.0
2016-Jul-26 09:33N 29°59' W 090°01'1 0.9
2016-Jul-26 08:33N 29°60' W 090°00'2 2.5
2016-Jul-26 07:33N 29°58' W 090°02'0 0.3
2016-Jul-26 06:33N 29°57' W 090°01'2 2.3
2016-Jul-26 05:33N 29°56' W 089°59'1 0.9
2016-Jul-26 04:33N 29°56' W 090°00'0 0.0
2016-Jul-26 03:33N 29°56' W 090°00'0 0.0
2016-Jul-26 02:33N 29°56' W 090°00'0 0.0
2016-Jul-26 01:33N 29°56' W 090°00'0 0.0
2016-Jul-26 00:33N 29°56' W 090°00'0 0.0
2016-Jul-25 23:33N 29°56' W 090°00'0 0.0
2016-Jul-25 22:34N 29°56' W 090°00'  

Dump ship's entire track history